Time;durP1;ratioP1;P1;durP2;ratioP2;P2;SDS_P1;SDS_P2;PMS_P1;PMS_P2;Temp;Humidity;BMP_temperature;BMP_pressure;BME280_temperature;BME280_humidity;BME280_pressure;Samples;Min_cycle;Max_cycle;Signal;HPM_P1;HPM_P2
2022/08/02 00:00:08;;;;;;;1.30;1.17;;;23.40;62.70;;;;;;5024492;28;20033;-51
2022/08/02 00:02:33;;;;;;;1.42;1.10;;;23.40;62.60;;;;;;5024639;28;20548;-55
2022/08/02 00:04:59;;;;;;;2.25;1.05;;;23.40;62.60;;;;;;5024933;28;20026;-56
2022/08/02 00:07:24;;;;;;;1.90;1.38;;;23.40;62.60;;;;;;5025257;28;20021;-56
2022/08/02 00:09:50;;;;;;;1.85;0.93;;;23.40;62.50;;;;;;5024026;28;20022;-52
2022/08/02 00:12:15;;;;;;;1.85;1.10;;;23.40;62.50;;;;;;5025165;28;20022;-53
2022/08/02 00:14:41;;;;;;;1.42;0.88;;;23.30;62.50;;;;;;5024519;28;20018;-50
2022/08/02 00:17:06;;;;;;;1.98;1.13;;;23.40;62.50;;;;;;5024675;28;20529;-49
2022/08/02 00:19:32;;;;;;;3.30;1.00;;;23.30;62.40;;;;;;5024010;28;20217;-48
2022/08/02 00:21:57;;;;;;;2.67;1.30;;;23.30;62.40;;;;;;5024779;28;20025;-47
2022/08/02 00:24:23;;;;;;;1.25;1.08;;;23.30;62.40;;;;;;5023700;28;20056;-48
2022/08/02 00:26:48;;;;;;;2.63;1.10;;;23.30;62.40;;;;;;5024732;28;20625;-48
2022/08/02 00:29:14;;;;;;;1.77;1.10;;;23.30;62.50;;;;;;5023840;28;20040;-48
2022/08/02 00:31:39;;;;;;;2.95;1.00;;;23.30;62.40;;;;;;5023697;28;20030;-46
2022/08/02 00:34:05;;;;;;;1.52;1.00;;;23.30;62.40;;;;;;5043042;28;20651;-49
2022/08/02 00:36:31;;;;;;;0.90;0.80;;;23.30;62.40;;;;;;5030639;28;20423;-48
2022/08/02 00:38:56;;;;;;;1.20;1.10;;;23.30;62.40;;;;;;5056147;28;20029;-49
2022/08/02 00:41:22;;;;;;;2.15;1.00;;;23.30;62.40;;;;;;5058755;28;20028;-51
2022/08/02 00:43:48;;;;;;;1.90;0.90;;;23.30;62.40;;;;;;5055814;28;20461;-45
2022/08/02 00:46:14;;;;;;;0.80;0.80;;;23.30;62.40;;;;;;5058623;28;20063;-48
2022/08/02 00:48:39;;;;;;;2.35;1.00;;;23.30;62.50;;;;;;5054376;28;20033;-48
2022/08/02 00:51:05;;;;;;;1.67;1.00;;;23.30;62.50;;;;;;5056528;28;20052;-52
2022/08/02 00:53:31;;;;;;;1.83;1.00;;;23.30;62.50;;;;;;5042031;28;20033;-50
2022/08/02 00:55:56;;;;;;;1.20;0.90;;;23.30;62.50;;;;;;5034002;28;20040;-50
2022/08/02 00:58:22;;;;;;;1.38;1.05;;;23.30;62.50;;;;;;5034931;28;20035;-48
2022/08/02 01:00:47;;;;;;;2.47;1.52;;;23.30;62.60;;;;;;5022311;28;20025;-46
2022/08/02 01:03:13;;;;;;;2.47;1.23;;;23.30;62.60;;;;;;5024867;28;20029;-49
2022/08/02 01:05:38;;;;;;;2.17;1.10;;;23.30;62.60;;;;;;5024268;28;20399;-50
2022/08/02 01:08:04;;;;;;;1.60;0.90;;;23.30;62.50;;;;;;5022730;28;20025;-48
2022/08/02 01:10:29;;;;;;;1.60;1.10;;;23.30;62.50;;;;;;5023690;28;20052;-51
2022/08/02 01:12:55;;;;;;;1.13;1.02;;;23.30;62.50;;;;;;5023888;28;20053;-50
2022/08/02 01:15:20;;;;;;;1.20;1.13;;;23.30;62.50;;;;;;5023609;28;20037;-49
2022/08/02 01:18:00;;;;;;;2.65;1.00;;;23.30;62.60;;;;;;5022771;28;20053;-49
2022/08/02 01:21:02;;;;;;;1.17;1.00;;;23.30;62.40;;;;;;5021371;28;20025;-50
2022/08/02 01:23:53;;;;;;;2.47;0.98;;;23.30;62.40;;;;;;5023758;28;20771;-50
2022/08/02 01:26:38;;;;;;;1.08;0.95;;;23.30;62.40;;;;;;5022159;28;20041;-51
2022/08/02 01:29:13;;;;;;;;;;;23.30;62.40;;;;;;5023808;28;20021;-48
2022/08/02 01:32:17;;;;;;;2.50;1.05;;;23.20;62.40;;;;;;5023992;28;19916;-50
2022/08/02 01:34:48;;;;;;;1.15;1.02;;;23.20;62.30;;;;;;5038172;28;22612;-51
2022/08/02 01:37:21;;;;;;;1.10;0.88;;;23.20;62.40;;;;;;5029975;28;20637;-51
2022/08/02 01:39:50;;;;;;;1.60;0.90;;;23.20;62.30;;;;;;5034668;28;20592;-50
2022/08/02 01:42:16;;;;;;;1.10;1.00;;;23.20;62.30;;;;;;5020968;28;20025;-48
2022/08/02 01:44:42;;;;;;;1.42;0.90;;;23.20;62.30;;;;;;5025781;28;20509;-51
2022/08/02 01:47:12;;;;;;;1.45;0.90;;;23.20;62.30;;;;;;5027003;28;20067;-49
2022/08/02 01:49:38;;;;;;;1.15;0.80;;;23.20;62.20;;;;;;5025534;28;20040;-52
2022/08/02 01:52:21;;;;;;;1.77;1.00;;;23.20;62.10;;;;;;5026770;28;20462;-54
2022/08/02 01:55:03;;;;;;;4.63;1.20;;;23.20;62.10;;;;;;5026592;28;20037;-54
2022/08/02 01:57:35;;;;;;;1.00;0.90;;;23.20;62.10;;;;;;5027250;28;20028;-51
2022/08/02 02:00:03;;;;;;;2.30;1.10;;;23.20;62.00;;;;;;5025143;28;20025;-48
2022/08/02 02:02:28;;;;;;;1.40;0.90;;;23.20;62.00;;;;;;5027356;28;20026;-50
2022/08/02 02:04:54;;;;;;;1.02;0.90;;;23.20;61.90;;;;;;5026313;28;20060;-50
2022/08/02 02:07:20;;;;;;;3.53;1.05;;;23.20;61.90;;;;;;5043509;28;20776;-51
2022/08/02 02:09:45;;;;;;;1.40;1.10;;;23.20;61.90;;;;;;5027165;28;20025;-48
2022/08/02 02:12:12;;;;;;;1.33;1.00;;;23.20;61.90;;;;;;5027413;28;20080;-48
2022/08/02 02:14:37;;;;;;;1.35;0.93;;;23.20;61.80;;;;;;5034541;28;20037;-48
2022/08/02 02:17:03;;;;;;;1.02;0.93;;;23.20;61.80;;;;;;5026063;28;20562;-51
2022/08/02 02:19:28;;;;;;;1.20;1.10;;;23.20;61.80;;;;;;5024833;28;20045;-49
2022/08/02 02:21:54;;;;;;;1.52;1.10;;;23.20;61.70;;;;;;5025745;28;20198;-49
2022/08/02 02:24:20;;;;;;;1.67;1.15;;;23.10;61.70;;;;;;5025229;28;20492;-46
2022/08/02 02:26:45;;;;;;;1.98;1.10;;;23.20;61.70;;;;;;5027616;28;20052;-52
2022/08/02 02:29:12;;;;;;;1.98;1.10;;;23.10;61.70;;;;;;5027104;28;20021;-52
2022/08/02 02:31:38;;;;;;;3.30;1.67;;;23.10;61.60;;;;;;5025681;28;20037;-51
2022/08/02 02:34:11;;;;;;;1.63;0.90;;;23.10;61.50;;;;;;5025292;28;20034;-53
2022/08/02 02:36:38;;;;;;;2.10;0.90;;;23.10;61.50;;;;;;5026466;28;20033;-51
2022/08/02 02:39:05;;;;;;;1.35;0.73;;;23.10;61.40;;;;;;5025293;28;20544;-49
2022/08/02 02:41:31;;;;;;;2.03;1.13;;;23.10;61.40;;;;;;5024787;28;20120;-51
2022/08/02 02:43:59;;;;;;;2.65;1.00;;;23.10;61.50;;;;;;5024216;28;20032;-50
2022/08/02 02:46:25;;;;;;;1.42;1.00;;;23.10;61.40;;;;;;5025193;28;20042;-51
2022/08/02 02:48:51;;;;;;;2.90;0.90;;;23.10;61.40;;;;;;5024696;28;20044;-48
2022/08/02 02:51:17;;;;;;;2.60;1.10;;;23.10;61.40;;;;;;5024797;28;20121;-49
2022/08/02 02:53:43;;;;;;;1.88;1.20;;;23.10;61.40;;;;;;5024530;28;20036;-48
2022/08/02 02:56:09;;;;;;;2.53;1.00;;;23.10;61.40;;;;;;5023409;28;20041;-50
2022/08/02 02:58:35;;;;;;;1.33;1.23;;;23.10;61.40;;;;;;5024378;28;20136;-50
2022/08/02 03:03:44;;;;;;;2.25;0.90;;;23.10;61.30;;;;;;5025704;28;20048;-50
2022/08/02 03:06:10;;;;;;;2.17;1.17;;;23.10;61.30;;;;;;5041294;28;20490;-49
2022/08/02 03:08:36;;;;;;;1.10;0.98;;;23.10;61.40;;;;;;5031731;28;20040;-49
2022/08/02 03:11:01;;;;;;;2.75;1.38;;;23.10;61.30;;;;;;5055895;28;20033;-49
2022/08/02 03:13:27;;;;;;;1.30;1.20;;;23.10;61.30;;;;;;5030001;28;20033;-48
2022/08/02 03:15:52;;;;;;;1.92;0.90;;;23.10;61.30;;;;;;5031877;28;20033;-51
2022/08/02 03:18:38;;;;;;;2.55;1.10;;;23.10;61.30;;;;;;5032492;28;20485;-50
2022/08/02 03:21:05;;;;;;;1.58;1.42;;;23.10;61.20;;;;;;5045356;28;20021;-48
2022/08/02 03:23:31;;;;;;;1.95;1.20;;;23.10;61.10;;;;;;5045058;28;20037;-48
2022/08/02 03:25:56;;;;;;;1.55;1.30;;;23.00;61.10;;;;;;5044644;28;20503;-50
2022/08/02 03:28:22;;;;;;;2.03;1.08;;;23.10;61.10;;;;;;5031712;28;20577;-50
2022/08/02 03:30:48;;;;;;;2.83;1.10;;;23.00;61.00;;;;;;5053426;28;20033;-48
2022/08/02 03:33:13;;;;;;;2.13;1.27;;;23.10;61.10;;;;;;5038663;28;20025;-48
2022/08/02 03:35:40;;;;;;;3.92;1.40;;;23.00;61.00;;;;;;5032506;28;20037;-49
2022/08/02 03:38:05;;;;;;;1.52;1.10;;;23.00;61.00;;;;;;5043469;28;20120;-50
2022/08/02 03:40:31;;;;;;;2.38;1.27;;;23.00;60.90;;;;;;5045023;28;20156;-48
2022/08/02 03:42:56;;;;;;;1.42;1.20;;;23.00;60.90;;;;;;5045825;28;20033;-48
2022/08/02 03:45:22;;;;;;;2.13;1.20;;;23.00;60.90;;;;;;5044230;28;20163;-49
2022/08/02 03:47:47;;;;;;;2.33;1.30;;;23.00;60.90;;;;;;5044207;28;20024;-49
2022/08/02 03:50:13;;;;;;;2.50;1.38;;;23.00;60.90;;;;;;5044203;28;20427;-49
2022/08/02 03:52:41;;;;;;;1.88;1.38;;;23.00;60.90;;;;;;5027035;28;20032;-48
2022/08/02 03:55:08;;;;;;;2.45;1.48;;;23.00;60.80;;;;;;5045138;28;20108;-47
2022/08/02 03:57:39;;;;;;;3.47;1.15;;;23.00;60.90;;;;;;5044982;28;20654;-50
2022/08/02 04:00:06;;;;;;;5.40;1.30;;;23.00;60.90;;;;;;5044640;28;20021;-49
2022/08/02 04:02:32;;;;;;;1.60;1.50;;;23.00;60.90;;;;;;5044429;28;20052;-52
2022/08/02 04:04:57;;;;;;;3.28;1.50;;;23.00;60.80;;;;;;5038029;28;20526;-50
2022/08/02 04:07:23;;;;;;;3.65;1.20;;;23.00;60.90;;;;;;5041156;28;20033;-48
2022/08/02 04:09:48;;;;;;;7.55;1.70;;;23.00;61.30;;;;;;5044657;28;20029;-49
2022/08/02 04:12:14;;;;;;;1.55;1.45;;;23.00;60.80;;;;;;5029770;28;20044;-49
2022/08/02 04:14:39;;;;;;;5.20;1.20;;;23.00;60.80;;;;;;5024850;28;20029;-49
2022/08/02 04:17:07;;;;;;;3.22;1.45;;;23.00;60.80;;;;;;5022999;28;20596;-50
2022/08/02 04:19:47;;;;;;;1.77;1.40;;;23.00;60.80;;;;;;5022953;28;20403;-48
2022/08/02 04:22:17;;;;;;;1.75;1.20;;;23.00;60.80;;;;;;5024231;28;20112;-50
2022/08/02 04:24:46;;;;;;;1.63;1.35;;;23.00;60.80;;;;;;5023287;28;20049;-48
2022/08/02 04:27:11;;;;;;;1.35;1.25;;;23.00;60.80;;;;;;5023138;28;20044;-50
2022/08/02 04:32:05;;;;;;;1.30;1.20;;;23.00;60.70;;;;;;5029873;28;20513;-52
2022/08/02 04:34:30;;;;;;;1.35;1.10;;;23.00;60.80;;;;;;5042692;28;20053;-51
2022/08/02 04:36:57;;;;;;;2.35;1.48;;;23.00;60.80;;;;;;5034940;28;20503;-50
2022/08/02 04:39:23;;;;;;;1.65;1.55;;;23.00;60.70;;;;;;5022231;28;20091;-49
2022/08/02 04:41:48;;;;;;;1.60;1.48;;;23.00;60.70;;;;;;5023755;28;20034;-52
2022/08/02 04:44:14;;;;;;;1.60;1.38;;;23.00;60.70;;;;;;5024458;28;20068;-49
2022/08/02 04:46:39;;;;;;;3.47;1.60;;;23.10;60.80;;;;;;5024637;28;20030;-51
2022/08/02 04:49:05;;;;;;;2.15;1.48;;;23.00;60.60;;;;;;5023605;28;20492;-51
2022/08/02 04:51:34;;;;;;;2.03;1.20;;;23.00;60.70;;;;;;5022613;28;20037;-52
2022/08/02 04:54:00;;;;;;;2.58;1.25;;;23.00;60.70;;;;;;5022635;28;20033;-51
2022/08/02 04:56:25;;;;;;;2.35;1.60;;;23.00;60.70;;;;;;5024061;28;20183;-53
2022/08/02 04:58:51;;;;;;;3.13;2.03;;;23.10;60.70;;;;;;5022797;28;20033;-52
2022/08/02 05:01:16;;;;;;;1.27;1.17;;;23.10;60.70;;;;;;5024094;28;20029;-53
2022/08/02 05:03:42;;;;;;;2.45;1.50;;;23.10;60.70;;;;;;5024001;28;20033;-50
2022/08/02 05:06:07;;;;;;;2.25;1.50;;;23.10;60.80;;;;;;5024195;28;20056;-51
2022/08/02 05:08:32;;;;;;;3.00;1.90;;;23.10;60.80;;;;;;4999072;28;20201;-50
2022/08/02 05:10:58;;;;;;;1.70;1.60;;;23.00;61.00;;;;;;5004329;28;20510;-53
2022/08/02 05:13:24;;;;;;;4.60;1.73;;;23.00;61.10;;;;;;5020256;28;20037;-52
2022/08/02 05:15:50;;;;;;;4.07;1.80;;;23.00;61.20;;;;;;5017372;28;20049;-49
2022/08/02 05:18:15;;;;;;;2.40;2.05;;;22.90;61.30;;;;;;5043617;28;20052;-49
2022/08/02 05:20:41;;;;;;;6.70;2.05;;;23.00;61.50;;;;;;5042076;28;20039;-51
2022/08/02 05:23:06;;;;;;;12.73;3.10;;;22.90;61.40;;;;;;5043126;28;20025;-52
2022/08/02 05:25:32;;;;;;;10.50;2.90;;;22.90;61.60;;;;;;5042082;28;20029;-53
2022/08/02 05:27:57;;;;;;;10.48;2.58;;;22.90;61.70;;;;;;5041315;28;20036;-50
2022/08/02 05:30:23;;;;;;;8.95;2.50;;;22.90;61.80;;;;;;5039047;28;20536;-49
2022/08/02 05:32:51;;;;;;;9.20;2.47;;;23.00;62.00;;;;;;5014315;28;20025;-50
2022/08/02 05:35:20;;;;;;;12.23;3.40;;;22.90;62.00;;;;;;5033335;28;20401;-50
2022/08/02 05:37:46;;;;;;;15.75;3.80;;;22.90;62.00;;;;;;5040444;28;20033;-50
2022/08/02 05:40:12;;;;;;;13.20;3.35;;;22.90;62.00;;;;;;5029499;28;20198;-50
2022/08/02 05:42:37;;;;;;;11.05;2.85;;;22.90;62.50;;;;;;5033590;28;20745;-50
2022/08/02 05:45:04;;;;;;;6.63;2.80;;;22.90;62.80;;;;;;5033956;28;20040;-50
2022/08/02 05:47:29;;;;;;;7.32;2.45;;;22.90;62.70;;;;;;5033641;28;20022;-50
2022/08/02 05:49:55;;;;;;;12.50;2.70;;;22.90;62.70;;;;;;5042446;28;20036;-49
2022/08/02 05:52:20;;;;;;;9.05;2.60;;;22.90;62.80;;;;;;5043675;28;20478;-50
2022/08/02 05:55:04;;;;;;;8.40;2.70;;;22.90;62.90;;;;;;5042982;28;20049;-50
2022/08/02 05:57:49;;;;;;;5.57;2.40;;;22.90;62.90;;;;;;5041608;28;20041;-50
2022/08/02 06:00:14;;;;;;;7.60;2.88;;;22.90;62.90;;;;;;5042766;28;20497;-51
2022/08/02 06:02:52;;;;;;;4.70;2.58;;;22.90;62.90;;;;;;5042918;28;20132;-51
2022/08/02 06:05:21;;;;;;;6.78;2.33;;;22.90;63.20;;;;;;5039934;28;20510;-50
2022/08/02 06:07:47;;;;;;;3.63;2.50;;;22.90;63.30;;;;;;5042848;28;20033;-49
2022/08/02 06:10:14;;;;;;;6.47;2.72;;;22.90;63.40;;;;;;5042790;28;20040;-51
2022/08/02 06:13:00;;;;;;;6.80;2.70;;;22.90;63.30;;;;;;5042940;28;20037;-53
2022/08/02 06:15:26;;;;;;;5.57;2.40;;;22.90;63.30;;;;;;5040537;28;20051;-50
2022/08/02 06:17:51;;;;;;;5.35;2.50;;;22.90;63.20;;;;;;5042093;28;20147;-53
2022/08/02 06:20:17;;;;;;;4.85;2.78;;;22.90;63.30;;;;;;5034565;28;20363;-51
2022/08/02 06:22:43;;;;;;;3.65;2.60;;;22.90;63.30;;;;;;5034263;28;20107;-51
2022/08/02 06:25:09;;;;;;;6.85;2.90;;;22.90;63.40;;;;;;5033294;28;20056;-52
2022/08/02 06:27:35;;;;;;;4.25;2.92;;;22.90;63.50;;;;;;5042841;28;20040;-50
2022/08/02 06:30:00;;;;;;;5.63;2.65;;;22.90;63.40;;;;;;5043844;28;20032;-53
2022/08/02 06:32:26;;;;;;;3.03;2.63;;;22.90;63.30;;;;;;5046481;28;20159;-53
2022/08/02 06:34:52;;;;;;;3.58;2.00;;;22.90;63.20;;;;;;5046197;28;20036;-50
2022/08/02 06:37:33;;;;;;;4.30;2.40;;;22.90;63.50;;;;;;5046207;28;20281;-51
2022/08/02 06:40:27;;;;;;;9.63;2.63;;;22.90;63.50;;;;;;5046628;28;20033;-52
2022/08/02 06:43:03;;;;;;;6.75;2.30;;;23.00;63.60;;;;;;5056472;28;20052;-49
2022/08/02 06:45:29;;;;;;;6.90;2.53;;;23.00;63.80;;;;;;5026532;28;20036;-51
2022/08/02 06:47:54;;;;;;;6.93;3.03;;;22.90;63.80;;;;;;5030199;28;20424;-52
2022/08/02 06:50:20;;;;;;;6.72;2.88;;;22.90;63.50;;;;;;5045519;28;20047;-51
2022/08/02 06:52:45;;;;;;;5.47;2.50;;;22.90;63.60;;;;;;5046002;28;20502;-50
2022/08/02 06:55:11;;;;;;;12.88;3.22;;;23.00;63.50;;;;;;5045946;28;20106;-49
2022/08/02 06:57:36;;;;;;;8.68;3.25;;;23.00;63.20;;;;;;5045955;28;20021;-51
2022/08/02 07:00:07;;;;;;;7.95;3.25;;;22.90;63.40;;;;;;5045990;28;20508;-50
2022/08/02 07:02:33;;;;;;;14.70;3.65;;;22.90;63.40;;;;;;5036148;28;20048;-53
2022/08/02 07:04:58;;;;;;;17.45;3.40;;;22.90;63.30;;;;;;5021690;28;20030;-52
2022/08/02 07:07:24;;;;;;;19.63;3.63;;;23.00;63.20;;;;;;5026351;28;20394;-52
2022/08/02 07:09:50;;;;;;;15.07;4.25;;;22.90;63.50;;;;;;5044435;28;20401;-55
2022/08/02 07:12:16;;;;;;;22.08;3.72;;;22.90;63.40;;;;;;5036679;28;20028;-54
2022/08/02 07:14:41;;;;;;;21.17;3.80;;;23.00;63.80;;;;;;5053555;28;20029;-53
2022/08/02 07:17:07;;;;;;;17.75;4.15;;;22.90;63.80;;;;;;5042424;28;20029;-51
2022/08/02 07:19:32;;;;;;;10.13;3.35;;;22.90;64.80;;;;;;5044233;28;20120;-51
2022/08/02 07:21:58;;;;;;;11.23;3.78;;;22.90;64.90;;;;;;5045694;28;20021;-49
2022/08/02 07:24:23;;;;;;;12.93;3.70;;;22.90;64.70;;;;;;5046111;28;20047;-51
2022/08/02 07:26:49;;;;;;;10.48;4.00;;;22.90;64.50;;;;;;5046052;28;20104;-51
2022/08/02 07:29:14;;;;;;;7.85;3.30;;;22.90;64.50;;;;;;5045536;28;20078;-51
2022/08/02 07:31:40;;;;;;;7.30;3.70;;;22.90;64.60;;;;;;5045640;28;20048;-51
2022/08/02 07:34:05;;;;;;;9.85;3.58;;;22.90;64.70;;;;;;5045277;28;20657;-52
2022/08/02 07:36:31;;;;;;;5.63;3.47;;;22.90;64.60;;;;;;5045259;28;20505;-51
2022/08/02 07:38:56;;;;;;;8.10;3.90;;;23.00;64.50;;;;;;5042467;28;20029;-50
2022/08/02 07:41:22;;;;;;;7.78;2.50;;;22.90;63.90;;;;;;5045541;28;20036;-53
2022/08/02 07:43:48;;;;;;;6.28;3.28;;;22.90;63.90;;;;;;5035853;28;20561;-50
2022/08/02 07:46:13;;;;;;;6.70;2.78;;;23.00;64.00;;;;;;5045167;28;20078;-54
2022/08/02 07:48:39;;;;;;;4.50;2.80;;;22.90;64.00;;;;;;5044363;28;20060;-51
2022/08/02 07:51:04;;;;;;;6.35;2.67;;;22.90;64.30;;;;;;5044694;28;20029;-50
2022/08/02 07:53:30;;;;;;;6.25;2.97;;;22.90;64.10;;;;;;5044086;28;20033;-51
2022/08/02 07:55:55;;;;;;;5.35;2.60;;;22.90;64.30;;;;;;5044712;28;20039;-50
2022/08/02 07:58:20;;;;;;;2.65;2.35;;;22.90;64.40;;;;;;5045048;28;20112;-50
2022/08/02 08:00:46;;;;;;;3.85;2.72;;;22.90;64.10;;;;;;5044413;28;20601;-51
2022/08/02 08:03:12;;;;;;;5.55;3.45;;;22.90;64.00;;;;;;5044095;28;20041;-51
2022/08/02 08:05:37;;;;;;;5.63;3.20;;;22.90;63.90;;;;;;5043333;28;20025;-48
2022/08/02 08:08:04;;;;;;;4.90;2.78;;;22.90;63.70;;;;;;5044468;28;20036;-49
2022/08/02 08:10:31;;;;;;;4.07;2.83;;;22.90;63.80;;;;;;5043376;28;20057;-52
2022/08/02 08:12:56;;;;;;;5.18;2.50;;;22.90;63.80;;;;;;5042838;28;20022;-49
2022/08/02 08:15:22;;;;;;;2.72;2.38;;;22.90;64.00;;;;;;5044368;28;20021;-49
2022/08/02 08:17:47;;;;;;;5.10;2.40;;;22.90;63.70;;;;;;5044384;28;20139;-49
2022/08/02 08:20:13;;;;;;;2.88;2.25;;;23.00;63.60;;;;;;5043902;28;20033;-50
2022/08/02 08:22:38;;;;;;;2.85;2.03;;;23.00;63.80;;;;;;5042700;28;20055;-50
2022/08/02 08:25:04;;;;;;;4.82;2.70;;;22.90;64.00;;;;;;5044053;28;20079;-51
2022/08/02 08:27:30;;;;;;;3.50;2.50;;;22.90;64.00;;;;;;5043180;28;20570;-52
2022/08/02 08:29:55;;;;;;;4.45;2.53;;;22.80;64.00;;;;;;5043043;28;20032;-52
2022/08/02 08:32:21;;;;;;;5.18;2.33;;;22.90;63.70;;;;;;5044795;28;20025;-49
2022/08/02 08:34:47;;;;;;;3.30;2.00;;;22.90;64.00;;;;;;5043999;28;20581;-49
2022/08/02 08:37:14;;;;;;;3.05;2.47;;;22.90;63.80;;;;;;5044220;28;20056;-49
2022/08/02 08:39:39;;;;;;;3.83;2.42;;;22.90;63.90;;;;;;5043105;28;20033;-50
2022/08/02 08:42:06;;;;;;;3.38;2.20;;;22.90;63.90;;;;;;5044278;28;20033;-54
2022/08/02 08:44:33;;;;;;;3.78;2.50;;;22.90;63.90;;;;;;5043543;28;20570;-51
2022/08/02 08:46:58;;;;;;;4.05;2.35;;;22.90;63.90;;;;;;5044956;28;20032;-52
2022/08/02 08:49:39;;;;;;;2.97;2.03;;;22.80;63.90;;;;;;5041940;28;20508;-49
2022/08/02 08:52:05;;;;;;;3.38;2.50;;;22.90;63.90;;;;;;5035189;28;20032;-50
2022/08/02 08:54:31;;;;;;;5.45;2.35;;;22.90;63.60;;;;;;5042558;28;20033;-50
2022/08/02 08:56:57;;;;;;;3.75;2.20;;;22.90;63.60;;;;;;5035327;28;20041;-51
2022/08/02 08:59:22;;;;;;;3.13;2.30;;;22.90;63.60;;;;;;5014053;28;20661;-50
2022/08/02 09:01:49;;;;;;;4.30;2.42;;;22.90;63.60;;;;;;5033470;28;20023;-49
2022/08/02 09:04:14;;;;;;;5.03;2.67;;;22.90;63.60;;;;;;5022361;28;20036;-52
2022/08/02 09:06:40;;;;;;;5.15;2.60;;;22.90;63.50;;;;;;5035799;28;20887;-51
2022/08/02 09:09:05;;;;;;;4.68;2.55;;;22.90;64.90;;;;;;5039968;28;20094;-49
2022/08/02 09:11:31;;;;;;;6.40;2.35;;;22.90;64.70;;;;;;5040805;28;20045;-48
2022/08/02 09:13:58;;;;;;;3.75;2.70;;;22.90;64.20;;;;;;5040505;28;20021;-48
2022/08/02 09:16:38;;;;;;;3.90;2.20;;;22.90;63.90;;;;;;5014922;28;20037;-52
2022/08/02 09:19:23;;;;;;;3.45;2.70;;;22.90;64.10;;;;;;5041579;28;20032;-50
2022/08/02 09:22:03;;;;;;;3.22;2.78;;;22.90;63.80;;;;;;5025399;28;20029;-49
2022/08/02 09:24:29;;;;;;;2.55;2.10;;;22.90;63.60;;;;;;5032173;28;20268;-50
2022/08/02 09:26:54;;;;;;;3.03;2.72;;;22.90;63.60;;;;;;5042495;28;20615;-50
2022/08/02 09:29:21;;;;;;;3.33;2.53;;;22.90;63.60;;;;;;5043313;28;20032;-52
2022/08/02 09:31:47;;;;;;;3.10;2.00;;;23.00;63.40;;;;;;5041365;28;20045;-52
2022/08/02 09:34:13;;;;;;;3.35;2.10;;;23.00;63.30;;;;;;5043570;28;20049;-50
2022/08/02 09:36:47;;;;;;;5.32;2.20;;;23.00;63.60;;;;;;5031697;28;20036;-49
2022/08/02 09:39:14;;;;;;;3.27;1.90;;;22.90;63.60;;;;;;5033444;28;20506;-51
2022/08/02 09:41:40;;;;;;;3.95;2.63;;;23.00;63.70;;;;;;5032769;28;20037;-50
2022/08/02 09:44:13;;;;;;;3.08;2.20;;;22.90;64.00;;;;;;5031942;28;20040;-52
2022/08/02 09:46:43;;;;;;;4.10;2.20;;;22.90;63.80;;;;;;5031406;28;20103;-53
2022/08/02 09:49:10;;;;;;;3.05;2.15;;;22.90;63.90;;;;;;5033286;28;20057;-50
2022/08/02 09:51:49;;;;;;;3.28;2.67;;;22.90;63.40;;;;;;5032484;28;20036;-50
2022/08/02 09:54:23;;;;;;;3.17;2.38;;;23.00;63.50;;;;;;5033762;28;20040;-50
2022/08/02 09:56:53;;;;;;;2.30;1.85;;;23.00;63.40;;;;;;5030576;28;20037;-48
2022/08/02 09:59:20;;;;;;;2.80;2.60;;;23.00;63.20;;;;;;5030865;28;20029;-51
2022/08/02 10:01:47;;;;;;;2.80;2.20;;;23.00;63.40;;;;;;5034375;28;20036;-51
2022/08/02 10:04:13;;;;;;;5.22;2.30;;;23.00;63.30;;;;;;5034058;28;20082;-49
2022/08/02 10:06:39;;;;;;;3.83;2.10;;;23.00;63.10;;;;;;5036606;28;20053;-51
2022/08/02 10:09:05;;;;;;;2.20;2.00;;;23.00;63.10;;;;;;5035335;28;20108;-50
2022/08/02 10:11:31;;;;;;;2.78;2.20;;;23.00;63.00;;;;;;5036580;28;20058;-49
2022/08/02 10:13:57;;;;;;;4.45;2.05;;;23.00;62.80;;;;;;5037949;28;20033;-50
2022/08/02 10:16:23;;;;;;;2.85;2.00;;;23.00;62.70;;;;;;5035578;28;20702;-48
2022/08/02 10:18:51;;;;;;;1.70;1.60;;;23.00;62.90;;;;;;5038016;28;20036;-50
2022/08/02 10:21:28;;;;;;;4.10;2.30;;;23.00;62.90;;;;;;5034210;28;20026;-49
2022/08/02 10:23:53;;;;;;;3.60;2.38;;;23.00;63.00;;;;;;5024475;28;20021;-50
2022/08/02 10:26:19;;;;;;;3.80;1.90;;;23.10;62.90;;;;;;5028941;28;20325;-52
2022/08/02 10:28:47;;;;;;;3.78;2.08;;;23.10;62.80;;;;;;5045011;28;20028;-51
2022/08/02 10:31:14;;;;;;;4.80;2.38;;;23.10;62.90;;;;;;5045198;28;20503;-50
2022/08/02 10:33:40;;;;;;;3.90;1.95;;;23.10;62.80;;;;;;5046644;28;20048;-53
2022/08/02 10:36:05;;;;;;;2.50;2.30;;;23.10;62.80;;;;;;5045339;28;20033;-51
2022/08/02 10:38:31;;;;;;;2.40;2.03;;;23.10;62.70;;;;;;5044329;28;20044;-50
2022/08/02 10:40:56;;;;;;;2.42;1.95;;;23.10;62.60;;;;;;5045027;28;20083;-48
2022/08/02 10:43:31;;;;;;;3.20;2.08;;;23.10;62.50;;;;;;5045494;28;20039;-53
2022/08/02 10:46:34;;;;;;;3.92;2.00;;;23.10;62.30;;;;;;5046463;28;20028;-51
2022/08/02 10:49:00;;;;;;;2.75;1.88;;;23.10;62.40;;;;;;5045190;28;20436;-52
2022/08/02 10:51:55;;;;;;;2.33;2.00;;;23.10;62.10;;;;;;5045744;28;20116;-51
2022/08/02 10:54:41;;;;;;;3.50;1.95;;;23.10;62.30;;;;;;5046407;28;20029;-48
2022/08/02 10:57:14;;;;;;;2.22;1.95;;;23.20;62.40;;;;;;5045133;28;20049;-52
2022/08/02 10:59:40;;;;;;;1.80;1.70;;;23.20;62.40;;;;;;5045448;28;20055;-53
2022/08/02 11:02:05;;;;;;;2.03;1.83;;;23.10;62.20;;;;;;5045491;28;20044;-49
2022/08/02 11:04:52;;;;;;;2.20;2.03;;;23.10;62.30;;;;;;5045996;28;20037;-50
2022/08/02 11:07:18;;;;;;;2.30;2.00;;;23.10;62.40;;;;;;5041838;28;20024;-51
2022/08/02 11:09:45;;;;;;;2.22;2.03;;;23.10;62.60;;;;;;5045280;28;20040;-52
2022/08/02 11:12:18;;;;;;;4.32;2.35;;;23.10;62.90;;;;;;5037337;28;20044;-52
2022/08/02 11:14:45;;;;;;;3.45;2.10;;;23.10;62.90;;;;;;5045047;28;20733;-51
2022/08/02 11:17:15;;;;;;;2.00;1.90;;;23.10;62.40;;;;;;5043681;28;20033;-52
2022/08/02 11:20:11;;;;;;;2.28;2.05;;;23.10;62.70;;;;;;5045034;28;20044;-50
2022/08/02 11:22:41;;;;;;;2.50;2.13;;;23.20;61.80;;;;;;5044752;28;20040;-50
2022/08/02 11:25:22;;;;;;;2.75;2.10;;;23.20;61.90;;;;;;5045414;28;20033;-54
2022/08/02 11:27:57;;;;;;;2.70;2.10;;;23.20;61.50;;;;;;5044486;28;20196;-49
2022/08/02 11:30:22;;;;;;;;;;;23.20;61.10;;;;;;5035138;28;20578;-49
2022/08/02 11:32:48;;;;;;;3.15;2.15;;;23.20;61.10;;;;;;5033612;28;20479;-49
2022/08/02 11:35:14;;;;;;;2.88;1.90;;;23.20;60.60;;;;;;5035152;28;20026;-53
2022/08/02 11:37:41;;;;;;;4.68;2.22;;;23.20;60.60;;;;;;5033236;28;20098;-50
2022/08/02 11:40:12;;;;;;;4.55;2.25;;;23.20;60.50;;;;;;5034400;28;20721;-49
2022/08/02 11:42:40;;;;;;;2.25;2.03;;;23.20;60.90;;;;;;5034683;28;20037;-50
2022/08/02 11:45:07;;;;;;;2.80;2.13;;;23.20;61.30;;;;;;5034592;28;20064;-49
2022/08/02 11:47:33;;;;;;;3.15;2.22;;;23.20;61.50;;;;;;5035285;28;20144;-53
2022/08/02 11:50:08;;;;;;;2.72;2.17;;;23.20;61.40;;;;;;5033431;28;20191;-49
2022/08/02 11:52:34;;;;;;;4.10;2.30;;;23.20;60.60;;;;;;5034951;28;20053;-51
2022/08/02 11:54:59;;;;;;;2.42;1.92;;;23.30;60.20;;;;;;5034115;28;20495;-48
2022/08/02 11:57:25;;;;;;;3.38;1.90;;;23.30;59.80;;;;;;5035956;28;20490;-50
2022/08/02 11:59:52;;;;;;;2.20;2.00;;;23.30;59.80;;;;;;5032838;28;20033;-49
2022/08/02 12:02:28;;;;;;;2.55;2.35;;;23.40;59.90;;;;;;5034830;28;20049;-48
2022/08/02 12:04:57;;;;;;;2.45;2.25;;;23.30;59.10;;;;;;5035238;28;20094;-51
2022/08/02 12:07:30;;;;;;;2.83;2.50;;;23.30;59.50;;;;;;5032956;28;20158;-50
2022/08/02 12:10:09;;;;;;;2.53;2.33;;;23.30;59.70;;;;;;5034441;28;20021;-48
2022/08/02 12:12:50;;;;;;;2.38;2.13;;;23.30;59.90;;;;;;5033713;28;20032;-51
2022/08/02 12:15:29;;;;;;;2.08;1.92;;;23.30;60.10;;;;;;5033153;28;20033;-51
2022/08/02 12:20:38;;;;;;;2.65;2.30;;;23.30;60.00;;;;;;5032418;28;20072;-48
2022/08/02 12:23:04;;;;;;;4.65;2.28;;;23.30;60.30;;;;;;5033153;28;20033;-51
2022/08/02 12:25:30;;;;;;;3.20;2.45;;;23.40;60.70;;;;;;5033189;28;20048;-50
2022/08/02 12:28:12;;;;;;;2.60;2.00;;;23.40;60.10;;;;;;5034588;28;20518;-52
2022/08/02 12:30:48;;;;;;;2.20;2.00;;;23.40;59.40;;;;;;5032032;28;20037;-49
2022/08/02 12:33:14;;;;;;;3.65;2.28;;;23.40;59.20;;;;;;5032965;28;20021;-51
2022/08/02 12:35:39;;;;;;;2.45;2.10;;;23.40;59.60;;;;;;5034419;28;20441;-49
2022/08/02 12:38:09;;;;;;;3.22;1.98;;;23.40;59.60;;;;;;5032974;28;20029;-50
2022/08/02 12:40:35;;;;;;;3.38;2.10;;;23.40;59.60;;;;;;5032591;28;20025;-50
2022/08/02 12:43:02;;;;;;;6.22;2.72;;;23.40;59.60;;;;;;5035152;28;20033;-50
2022/08/02 12:45:48;;;;;;;2.72;2.33;;;23.40;59.30;;;;;;5031004;28;20090;-48
2022/08/02 12:48:14;;;;;;;3.35;2.25;;;23.40;59.30;;;;;;5032772;28;20029;-50
2022/08/02 12:50:39;;;;;;;2.67;2.40;;;23.40;59.20;;;;;;5031797;28;20095;-52
2022/08/02 12:53:07;;;;;;;3.00;2.70;;;23.50;59.30;;;;;;5033962;28;20036;-49
2022/08/02 12:55:34;;;;;;;5.03;2.88;;;23.50;59.30;;;;;;5022757;28;20052;-50
2022/08/02 12:58:03;;;;;;;5.22;2.47;;;23.50;59.20;;;;;;5042778;28;20251;-50